Time;durP1;ratioP1;P1;durP2;ratioP2;P2;SDS_P1;SDS_P2;PMS_P1;PMS_P2;Temp;Humidity;BMP_temperature;BMP_pressure;BME280_temperature;BME280_humidity;BME280_pressure;Samples;Min_cycle;Max_cycle;Signal;HPM_P1;HPM_P2
2023/12/23 00:02:08;;;;;;;10.07;2.30;;;;;;;5.67;100.00;100862.50;5283257;28;20047;-72
2023/12/23 00:04:39;;;;;;;11.38;2.67;;;;;;;5.65;100.00;100864.19;5283192;28;20040;-71
2023/12/23 00:07:14;;;;;;;6.17;1.90;;;;;;;5.64;100.00;100865.06;5282908;28;20032;-71
2023/12/23 00:09:45;;;;;;;9.32;3.25;;;;;;;5.67;100.00;100867.69;5283292;28;20117;-72
2023/12/23 00:12:16;;;;;;;10.33;3.00;;;;;;;5.70;100.00;100878.06;5282942;28;20062;-72
2023/12/23 00:14:48;;;;;;;9.37;2.47;;;;;;;5.75;100.00;100873.78;5282699;28;20029;-70
2023/12/23 00:17:19;;;;;;;9.27;3.30;;;;;;;5.71;100.00;100866.84;5282865;28;20048;-72
2023/12/23 00:19:50;;;;;;;10.63;2.53;;;;;;;5.72;100.00;100853.06;5282940;28;20024;-71
2023/12/23 00:22:22;;;;;;;15.73;3.63;;;;;;;5.73;100.00;100844.44;5282691;28;20341;-72
2023/12/23 00:24:53;;;;;;;11.90;3.83;;;;;;;5.75;100.00;100854.81;5282635;28;20032;-72
2023/12/23 00:27:24;;;;;;;12.67;3.57;;;;;;;5.80;100.00;100853.13;5281668;28;20028;-72
2023/12/23 00:29:56;;;;;;;20.93;3.20;;;;;;;5.82;100.00;100846.22;5282553;28;20056;-72
2023/12/23 00:32:28;;;;;;;12.63;2.63;;;;;;;5.85;100.00;100849.69;5282545;28;20056;-71
2023/12/23 00:34:59;;;;;;;12.67;3.13;;;;;;;5.90;100.00;100841.13;5282548;28;20069;-72
2023/12/23 00:37:30;;;;;;;13.00;3.83;;;;;;;5.84;100.00;100844.50;5282571;28;20476;-73
2023/12/23 00:40:02;;;;;;;12.53;2.57;;;;;;;5.85;100.00;100841.94;5282386;28;20049;-72
2023/12/23 00:42:34;;;;;;;12.70;3.50;;;;;;;5.92;100.00;100840.25;5282365;28;20025;-72
2023/12/23 00:45:06;;;;;;;13.07;3.77;;;;;;;6.07;100.00;100836.97;5282405;28;20440;-72
2023/12/23 00:47:38;;;;;;;11.15;3.42;;;;;;;6.24;100.00;100825.84;5282212;28;20028;-72
2023/12/23 00:50:09;;;;;;;15.67;5.80;;;;;;;6.43;100.00;100827.66;5282073;28;20522;-71
2023/12/23 00:52:40;;;;;;;13.83;4.03;;;;;;;6.63;100.00;100821.72;5281333;28;20090;-71
2023/12/23 00:55:12;;;;;;;17.53;5.20;;;;;;;6.98;100.00;100844.28;5282133;28;20028;-71
2023/12/23 00:57:43;;;;;;;17.97;4.97;;;;;;;7.04;100.00;100818.41;5281706;28;20387;-72
2023/12/23 01:00:15;;;;;;;10.13;3.00;;;;;;;7.19;100.00;100814.97;5282309;28;20032;-71
2023/12/23 01:02:46;;;;;;;22.43;4.70;;;;;;;7.25;100.00;100813.25;5282355;28;20032;-71
2023/12/23 01:05:18;;;;;;;19.80;3.37;;;;;;;7.30;100.00;100813.25;5282212;28;20135;-72
2023/12/23 01:07:49;;;;;;;11.03;4.03;;;;;;;7.35;100.00;100815.84;5280811;28;20149;-71
2023/12/23 01:10:24;;;;;;;21.23;4.73;;;;;;;7.44;100.00;100815.88;5282143;28;20066;-71
2023/12/23 01:12:55;;;;;;;15.00;4.70;;;;;;;7.40;100.00;100814.13;5281752;28;20430;-71
2023/12/23 01:15:27;;;;;;;13.90;4.20;;;;;;;7.44;100.00;100819.31;5281849;28;20095;-70
2023/12/23 01:17:58;;;;;;;17.27;4.43;;;;;;;7.57;100.00;100807.22;5282232;28;20025;-71
2023/12/23 01:20:30;;;;;;;17.10;3.83;;;;;;;7.52;100.00;100806.34;5281909;28;20040;-71
2023/12/23 01:23:01;;;;;;;14.70;3.83;;;;;;;7.63;100.00;100807.22;5281963;28;20029;-71
2023/12/23 01:25:32;;;;;;;14.50;2.77;;;;;;;7.55;100.00;100801.16;5281554;28;20407;-72
2023/12/23 01:28:04;;;;;;;14.10;3.60;;;;;;;7.60;100.00;100808.94;5281395;28;20033;-71
2023/12/23 01:30:36;;;;;;;10.37;3.63;;;;;;;7.60;100.00;100804.63;5282370;28;20111;-72
2023/12/23 01:33:07;;;;;;;19.10;3.47;;;;;;;7.60;100.00;100790.75;5281456;28;20131;-72
2023/12/23 01:35:39;;;;;;;15.53;4.00;;;;;;;7.65;100.00;100789.06;5281682;28;20182;-72
2023/12/23 01:38:10;;;;;;;12.80;3.93;;;;;;;7.68;100.00;100796.84;5281822;28;20036;-72
2023/12/23 01:40:42;;;;;;;12.83;3.90;;;;;;;7.70;100.00;100796.84;5285354;28;20035;-72
2023/12/23 01:43:13;;;;;;;12.73;3.80;;;;;;;7.77;100.00;100801.16;5285918;28;20245;-73
2023/12/23 01:45:44;;;;;;;12.70;3.97;;;;;;;7.88;100.00;100786.44;5285434;28;20063;-72
2023/12/23 01:48:16;;;;;;;9.60;3.47;;;;;;;7.96;100.00;100781.22;5285608;28;20134;-73
2023/12/23 01:50:53;;;;;;;16.58;4.60;;;;;;;7.97;100.00;100780.34;5284327;28;20152;-72
2023/12/23 01:53:25;;;;;;;11.80;3.25;;;;;;;7.99;100.00;100782.06;5285218;28;20329;-73
2023/12/23 01:55:57;;;;;;;14.63;3.20;;;;;;;8.04;100.00;100790.72;5285290;28;20106;-73
2023/12/23 01:58:29;;;;;;;10.55;3.97;;;;;;;8.07;100.00;100794.19;5285049;28;20109;-72
2023/12/23 02:01:00;;;;;;;11.60;3.60;;;;;;;8.16;100.00;100788.94;5285189;28;20036;-72
2023/12/23 02:03:32;;;;;;;12.67;3.47;;;;;;;8.09;100.00;100780.31;5285413;28;20028;-72
2023/12/23 02:06:03;;;;;;;9.80;2.77;;;;;;;7.96;100.00;100786.41;5285041;28;20060;-72
2023/12/23 02:08:34;;;;;;;11.20;4.10;;;;;;;7.81;100.00;100782.13;5285399;28;20102;-71
2023/12/23 02:11:06;;;;;;;14.33;3.70;;;;;;;7.66;100.00;100770.91;5285124;28;20032;-71
2023/12/23 02:13:51;;;;;;;11.07;3.60;;;;;;;7.62;100.00;100769.16;5285259;28;20029;-72
2023/12/23 02:16:22;;;;;;;13.85;3.67;;;;;;;7.57;100.00;100768.31;5285302;28;20091;-72
2023/12/23 02:18:54;;;;;;;14.13;3.37;;;;;;;7.52;100.00;100764.84;5285244;28;20475;-71
2023/12/23 02:21:25;;;;;;;15.80;3.73;;;;;;;7.46;100.00;100751.88;5285066;28;20020;-72
2023/12/23 02:23:56;;;;;;;12.83;3.70;;;;;;;7.44;100.00;100761.41;5284733;28;20545;-72
2023/12/23 02:26:31;;;;;;;13.80;4.93;;;;;;;7.51;100.00;100759.66;5284939;28;20051;-71
2023/12/23 02:29:03;;;;;;;12.48;4.47;;;;;;;7.61;100.00;100767.41;5284503;28;20103;-72
2023/12/23 02:31:36;;;;;;;16.52;3.78;;;;;;;7.59;100.00;100770.91;5284801;28;20483;-72
2023/12/23 02:34:08;;;;;;;14.77;4.03;;;;;;;7.54;100.00;100776.09;5279821;28;20109;-71
2023/12/23 02:36:39;;;;;;;11.07;3.33;;;;;;;7.54;100.00;100770.03;5263839;28;20043;-71
2023/12/23 02:39:10;;;;;;;14.90;3.87;;;;;;;7.57;100.00;100773.50;5262808;28;20036;-71
2023/12/23 02:41:42;;;;;;;16.20;3.83;;;;;;;7.60;100.00;100757.94;5263743;28;20036;-72
2023/12/23 02:44:13;;;;;;;16.73;4.10;;;;;;;7.62;100.00;100750.13;5263634;28;20111;-72
2023/12/23 02:46:44;;;;;;;19.27;4.77;;;;;;;7.66;100.00;100755.31;5262235;28;20017;-71
2023/12/23 02:49:16;;;;;;;18.90;4.27;;;;;;;7.66;100.00;100741.47;5261981;28;20040;-72
2023/12/23 02:51:47;;;;;;;18.30;5.23;;;;;;;7.67;100.00;100738.88;5262705;28;20309;-72
2023/12/23 02:54:19;;;;;;;16.67;5.07;;;;;;;7.78;100.00;100725.03;5284021;28;20563;-72
2023/12/23 02:56:50;;;;;;;13.17;4.00;;;;;;;7.73;100.00;100745.81;5283545;28;20486;-72
2023/12/23 02:59:21;;;;;;;15.23;4.23;;;;;;;7.80;100.00;100737.13;5283734;28;20040;-71
2023/12/23 03:01:53;;;;;;;16.37;4.67;;;;;;;7.80;100.00;100741.47;5283080;28;20171;-70
2023/12/23 03:04:24;;;;;;;17.00;4.57;;;;;;;7.81;100.00;100727.63;5283914;28;20068;-72
2023/12/23 03:06:55;;;;;;;15.27;4.27;;;;;;;7.92;100.00;100731.06;5284178;28;20052;-72
2023/12/23 03:09:27;;;;;;;10.87;4.30;;;;;;;8.04;100.00;100723.22;5280613;28;20021;-71
2023/12/23 03:11:58;;;;;;;13.07;3.20;;;;;;;8.15;100.00;100711.94;5283571;28;20044;-71
2023/12/23 03:14:29;;;;;;;10.60;3.20;;;;;;;8.15;100.00;100725.78;5271716;28;20033;-71
2023/12/23 03:17:01;;;;;;;10.70;3.27;;;;;;;8.20;100.00;100725.75;5262258;28;20102;-71
2023/12/23 03:19:32;;;;;;;9.43;3.20;;;;;;;8.33;100.00;100723.97;5261889;28;20051;-71
2023/12/23 03:22:04;;;;;;;10.33;3.83;;;;;;;8.34;100.00;100738.66;5262846;28;20036;-71
2023/12/23 03:24:35;;;;;;;13.97;3.47;;;;;;;8.31;100.00;100731.78;5262630;28;20028;-72
2023/12/23 03:27:06;;;;;;;13.13;4.37;;;;;;;8.25;100.00;100723.16;5262917;28;20353;-72
2023/12/23 03:29:38;;;;;;;13.43;3.17;;;;;;;8.32;100.00;100738.72;5262507;28;20039;-71
2023/12/23 03:32:09;;;;;;;17.60;3.77;;;;;;;8.31;100.00;100746.50;5262728;28;20452;-71
2023/12/23 03:34:41;;;;;;;12.97;3.10;;;;;;;8.32;100.00;100730.91;5262717;28;20049;-71
2023/12/23 03:37:12;;;;;;;12.73;3.47;;;;;;;8.32;100.00;100717.94;5262639;28;20029;-71
2023/12/23 03:39:44;;;;;;;10.17;4.00;;;;;;;8.30;100.00;100731.78;5262695;28;20033;-71
2023/12/23 03:42:15;;;;;;;11.17;3.77;;;;;;;8.24;100.00;100719.66;5262664;28;20033;-72
2023/12/23 03:44:46;;;;;;;15.77;3.93;;;;;;;8.25;100.00;100724.00;5262512;28;20037;-72
2023/12/23 03:47:18;;;;;;;10.40;3.00;;;;;;;8.30;100.00;100716.19;5262265;28;20032;-71
2023/12/23 03:49:49;;;;;;;12.53;3.17;;;;;;;8.26;100.00;100722.25;5262346;28;20188;-72
2023/12/23 03:52:20;;;;;;;11.97;4.23;;;;;;;8.28;100.00;100718.81;5262445;28;20480;-72
2023/12/23 03:54:52;;;;;;;10.93;3.47;;;;;;;8.26;100.00;100707.56;5262445;28;20037;-72
2023/12/23 03:57:23;;;;;;;13.87;3.70;;;;;;;8.27;100.00;100704.06;5262014;28;20033;-71
2023/12/23 03:59:54;;;;;;;14.37;3.87;;;;;;;8.31;100.00;100716.19;5244033;28;20032;-72
2023/12/23 04:02:26;;;;;;;12.67;3.73;;;;;;;8.32;100.00;100724.84;5262051;28;20494;-71
2023/12/23 04:04:57;;;;;;;15.07;4.13;;;;;;;8.32;100.00;100720.53;5262201;28;20037;-72
2023/12/23 04:07:28;;;;;;;13.77;3.33;;;;;;;8.32;100.00;100711.84;5262047;28;20025;-72
2023/12/23 04:10:00;;;;;;;11.33;4.23;;;;;;;8.31;100.00;100712.75;5260678;28;20057;-72
2023/12/23 04:12:31;;;;;;;13.53;3.47;;;;;;;8.23;100.00;100710.19;5262042;28;20030;-73
2023/12/23 04:15:05;;;;;;;11.57;3.83;;;;;;;8.26;100.00;100709.28;5261998;28;20048;-72
2023/12/23 04:17:39;;;;;;;13.70;4.05;;;;;;;8.28;100.00;100713.59;5261939;28;20436;-71
2023/12/23 04:20:10;;;;;;;11.57;3.95;;;;;;;8.33;100.00;100718.78;5260447;28;20123;-71
2023/12/23 04:22:47;;;;;;;13.20;4.50;;;;;;;8.32;100.00;100701.47;5260236;28;20182;-71
2023/12/23 04:25:18;;;;;;;10.40;3.58;;;;;;;8.33;100.00;100696.25;5261844;28;20755;-71
2023/12/23 04:27:51;;;;;;;12.73;3.80;;;;;;;8.30;100.00;100693.69;5261331;28;20036;-71
2023/12/23 04:30:23;;;;;;;15.50;3.63;;;;;;;8.34;100.00;100681.53;5260225;28;20086;-72
2023/12/23 04:32:54;;;;;;;11.40;3.40;;;;;;;8.34;100.00;100673.75;5261273;28;20349;-72
2023/12/23 04:35:26;;;;;;;12.73;3.53;;;;;;;8.35;100.00;100678.94;5261181;28;20099;-72
2023/12/23 04:37:57;;;;;;;8.70;2.63;;;;;;;8.28;100.00;100673.81;5261411;28;20094;-72
2023/12/23 04:40:28;;;;;;;11.83;3.33;;;;;;;8.24;100.00;100662.53;5261485;28;20033;-72
2023/12/23 04:43:00;;;;;;;12.47;3.90;;;;;;;8.30;100.00;100675.50;5261520;28;20444;-70
2023/12/23 04:45:31;;;;;;;13.77;4.10;;;;;;;8.35;100.00;100660.75;5261266;28;20095;-70
2023/12/23 04:48:03;;;;;;;13.30;3.27;;;;;;;8.36;100.00;100656.44;5261308;28;20029;-70
2023/12/23 04:50:34;;;;;;;12.90;4.50;;;;;;;8.31;100.00;100663.41;5261460;28;20123;-70
2023/12/23 04:53:05;;;;;;;9.47;3.27;;;;;;;8.31;100.00;100658.22;5261025;28;20095;-70
2023/12/23 04:55:37;;;;;;;9.93;2.97;;;;;;;8.30;100.00;100688.47;5261224;28;20124;-69
2023/12/23 04:58:08;;;;;;;12.07;3.53;;;;;;;8.34;100.00;100651.25;5260459;28;20484;-70
2023/12/23 05:00:39;;;;;;;9.27;4.03;;;;;;;8.33;100.00;100666.84;5260939;28;20071;-71
2023/12/23 05:03:11;;;;;;;9.30;3.90;;;;;;;8.30;100.00;100656.47;5260850;28;20373;-71
2023/12/23 05:05:42;;;;;;;12.87;3.53;;;;;;;8.30;100.00;100649.53;5261062;28;20472;-71
2023/12/23 05:08:16;;;;;;;10.37;2.90;;;;;;;8.19;100.00;100660.00;5261037;28;20029;-71
2023/12/23 05:10:47;;;;;;;12.10;3.20;;;;;;;8.14;100.00;100661.72;5259430;28;20116;-71
2023/12/23 05:13:19;;;;;;;10.03;2.90;;;;;;;8.17;100.00;100647.88;5261090;28;20048;-71
2023/12/23 05:15:51;;;;;;;10.43;3.47;;;;;;;8.23;100.00;100658.25;5264598;28;20079;-72
2023/12/23 05:18:22;;;;;;;10.10;3.53;;;;;;;8.16;100.00;100657.41;5265287;28;20047;-71
2023/12/23 05:20:54;;;;;;;9.13;3.40;;;;;;;8.21;100.00;100657.34;5265165;28;20064;-71
2023/12/23 05:23:25;;;;;;;8.83;3.17;;;;;;;8.22;100.00;100670.34;5264863;28;20048;-71
2023/12/23 05:25:57;;;;;;;14.87;4.10;;;;;;;8.34;100.00;100648.66;5265263;28;20734;-72
2023/12/23 05:28:28;;;;;;;11.63;3.50;;;;;;;8.32;100.00;100642.63;5264785;28;20032;-71
2023/12/23 05:31:00;;;;;;;11.50;3.23;;;;;;;8.32;100.00;100639.13;5263663;28;20035;-72
2023/12/23 05:33:32;;;;;;;9.50;3.05;;;;;;;8.35;100.00;100655.56;5264734;28;20136;-71
2023/12/23 05:36:03;;;;;;;12.83;3.27;;;;;;;8.42;100.00;100655.53;5275940;28;20123;-72
2023/12/23 05:38:35;;;;;;;8.07;2.90;;;;;;;8.42;100.00;100642.53;5285757;28;20540;-72
2023/12/23 05:41:08;;;;;;;11.23;2.87;;;;;;;8.46;100.00;100636.50;5285946;28;20108;-72
2023/12/23 05:43:39;;;;;;;10.57;3.10;;;;;;;8.45;100.00;100630.41;5285715;28;20079;-71
2023/12/23 05:46:11;;;;;;;10.93;2.90;;;;;;;8.42;100.00;100642.53;5285525;28;20033;-72
2023/12/23 05:48:42;;;;;;;11.67;2.90;;;;;;;8.46;100.00;100662.47;5285816;28;20025;-71
2023/12/23 05:51:14;;;;;;;15.37;4.67;;;;;;;8.51;100.00;100645.13;5285844;28;20074;-72
2023/12/23 05:53:45;;;;;;;11.87;3.63;;;;;;;8.58;100.00;100636.38;5285559;28;20040;-70
2023/12/23 05:56:16;;;;;;;10.83;3.53;;;;;;;8.58;100.00;100646.78;5285367;28;20120;-71
2023/12/23 05:58:48;;;;;;;7.97;2.93;;;;;;;8.59;100.00;100653.72;5284961;28;20029;-72
2023/12/23 06:01:19;;;;;;;12.93;4.63;;;;;;;8.55;100.00;100644.22;5285732;28;20051;-72
2023/12/23 06:03:50;;;;;;;13.53;3.43;;;;;;;8.54;100.00;100658.94;5285906;28;20471;-71
2023/12/23 06:06:22;;;;;;;10.47;3.40;;;;;;;8.53;100.00;100654.63;5285317;28;20032;-71
2023/12/23 06:08:53;;;;;;;8.90;2.67;;;;;;;8.53;100.00;100641.66;5285163;28;20039;-71
2023/12/23 06:11:24;;;;;;;10.00;3.00;;;;;;;8.51;100.00;100643.38;5285050;28;20126;-71
2023/12/23 06:13:56;;;;;;;15.13;4.07;;;;;;;8.50;100.00;100636.47;5285371;28;20025;-71
2023/12/23 06:16:27;;;;;;;11.33;3.87;;;;;;;8.52;100.00;100641.66;5284900;28;20033;-72
2023/12/23 06:18:58;;;;;;;13.67;4.20;;;;;;;8.55;100.00;100634.69;5285174;28;20177;-71
2023/12/23 06:21:30;;;;;;;12.47;3.50;;;;;;;8.58;100.00;100649.38;5285167;28;20459;-71
2023/12/23 06:24:01;;;;;;;13.70;3.60;;;;;;;8.53;100.00;100626.06;5285214;28;20052;-71
2023/12/23 06:26:32;;;;;;;16.50;4.50;;;;;;;8.54;100.00;100643.34;5285046;28;20024;-69
2023/12/23 06:29:04;;;;;;;10.03;2.93;;;;;;;8.54;100.00;100619.97;5284708;28;20028;-70
2023/12/23 06:31:35;;;;;;;12.43;4.33;;;;;;;8.59;100.00;100640.72;5283629;28;20037;-70
2023/12/23 06:34:07;;;;;;;12.23;3.70;;;;;;;8.60;100.00;100633.78;5284770;28;20488;-71
2023/12/23 06:36:38;;;;;;;11.00;3.30;;;;;;;8.60;100.00;100629.47;5284897;28;20115;-72
2023/12/23 06:39:10;;;;;;;11.20;3.60;;;;;;;8.60;100.00;100639.88;5284789;28;20036;-71
2023/12/23 06:41:41;;;;;;;12.27;3.57;;;;;;;8.57;100.00;100648.53;5284756;28;20028;-72
2023/12/23 06:44:12;;;;;;;12.20;3.43;;;;;;;8.58;100.00;100645.06;5283576;28;20108;-71
2023/12/23 06:46:44;;;;;;;13.80;4.97;;;;;;;8.60;100.00;100639.88;5284623;28;20059;-71
2023/12/23 06:49:17;;;;;;;13.00;4.43;;;;;;;8.56;100.00;100635.53;5284400;28;20472;-72
2023/12/23 06:51:48;;;;;;;15.25;4.18;;;;;;;8.55;100.00;100636.44;5284318;28;20112;-71
2023/12/23 06:54:20;;;;;;;15.73;3.80;;;;;;;8.53;100.00;100641.66;5284259;28;20043;-72
2023/12/23 06:56:51;;;;;;;14.20;3.53;;;;;;;8.55;100.00;100626.06;5284433;28;20183;-72
2023/12/23 06:59:22;;;;;;;13.90;4.47;;;;;;;8.57;100.00;100643.34;5284092;28;20129;-72
2023/12/23 07:01:54;;;;;;;11.37;3.67;;;;;;;8.57;100.00;100639.88;5284446;28;20066;-71
2023/12/23 07:04:25;;;;;;;13.20;4.30;;;;;;;8.62;100.00;100624.28;5284493;28;20036;-71
2023/12/23 07:06:56;;;;;;;13.27;5.33;;;;;;;8.54;100.00;100626.91;5284178;28;20036;-72
2023/12/23 07:09:28;;;;;;;13.87;3.47;;;;;;;8.50;100.00;100631.28;5284169;28;20040;-71
2023/12/23 07:11:59;;;;;;;19.43;5.07;;;;;;;8.51;100.00;100626.94;5283994;28;20040;-71
2023/12/23 07:14:30;;;;;;;15.07;4.27;;;;;;;8.53;100.00;100636.44;5284390;28;20186;-71
2023/12/23 07:17:02;;;;;;;16.03;3.67;;;;;;;8.64;100.00;100610.38;5283790;28;20032;-70
2023/12/23 07:19:33;;;;;;;10.97;2.93;;;;;;;8.70;100.00;100612.94;5283891;28;20036;-70
2023/12/23 07:22:04;;;;;;;17.47;4.30;;;;;;;8.72;100.00;100634.56;5283824;28;20554;-70
2023/12/23 07:24:38;;;;;;;15.67;4.40;;;;;;;8.82;100.00;100637.09;5283849;28;20118;-70
2023/12/23 07:27:10;;;;;;;11.45;3.78;;;;;;;8.83;100.00;100644.88;5281800;28;20155;-69
2023/12/23 07:29:41;;;;;;;14.03;3.70;;;;;;;8.87;100.00;100646.59;5278240;28;20140;-70
2023/12/23 07:32:13;;;;;;;15.97;4.20;;;;;;;8.89;100.00;100652.63;5281993;28;20028;-69
2023/12/23 07:34:44;;;;;;;13.17;4.70;;;;;;;8.87;100.00;100646.59;5281984;28;20537;-70
2023/12/23 07:37:15;;;;;;;10.00;3.17;;;;;;;8.85;100.00;100647.47;5279907;28;20029;-70
2023/12/23 07:39:47;;;;;;;9.13;3.47;;;;;;;8.90;100.00;100659.56;5282930;28;20037;-70
2023/12/23 07:42:18;;;;;;;13.03;4.23;;;;;;;8.98;100.00;100672.47;5281580;28;20333;-70
2023/12/23 07:44:50;;;;;;;10.17;4.07;;;;;;;8.97;100.00;100668.19;5281129;28;20040;-70
2023/12/23 07:47:21;;;;;;;12.83;4.87;;;;;;;9.05;100.00;100665.53;5281947;28;20048;-70
2023/12/23 07:49:52;;;;;;;14.27;3.43;;;;;;;8.98;100.00;100654.28;5282417;28;20076;-70
2023/12/23 07:52:24;;;;;;;11.57;3.33;;;;;;;9.07;100.00;100664.63;5279915;28;20037;-71
2023/12/23 07:54:56;;;;;;;15.37;3.90;;;;;;;9.08;100.00;100634.25;5281971;28;20020;-70
2023/12/23 07:57:27;;;;;;;11.45;2.85;;;;;;;9.05;100.00;100626.53;5281672;28;20036;-70
2023/12/23 07:59:59;;;;;;;13.93;3.03;;;;;;;9.03;100.00;100630.84;5280492;28;20052;-70
2023/12/23 08:02:30;;;;;;;10.17;3.17;;;;;;;9.08;100.00;100644.66;5280789;28;20033;-70
2023/12/23 08:05:02;;;;;;;12.37;3.27;;;;;;;9.08;100.00;100645.56;5282759;28;20029;-71
2023/12/23 08:07:33;;;;;;;12.68;3.33;;;;;;;9.09;100.00;100664.59;5283059;28;20067;-70
2023/12/23 08:10:05;;;;;;;9.33;3.43;;;;;;;9.11;100.00;100658.53;5282880;28;20115;-70
2023/12/23 08:12:36;;;;;;;13.87;3.77;;;;;;;9.17;100.00;100647.19;5283297;28;20033;-71
2023/12/23 08:15:08;;;;;;;10.27;2.97;;;;;;;9.16;100.00;100649.81;5282813;28;20064;-70
2023/12/23 08:17:39;;;;;;;10.70;3.40;;;;;;;9.21;100.00;100653.22;5282553;28;20041;-71
2023/12/23 08:20:11;;;;;;;9.93;3.17;;;;;;;9.22;100.00;100654.97;5282868;28;20091;-71
2023/12/23 08:22:42;;;;;;;12.07;3.23;;;;;;;9.25;100.00;100654.94;5282819;28;20082;-71
2023/12/23 08:25:15;;;;;;;12.50;3.77;;;;;;;9.25;100.00;100660.97;5282685;28;20476;-71
2023/12/23 08:27:46;;;;;;;11.93;2.92;;;;;;;9.22;100.00;100660.16;5282395;28;20379;-71
2023/12/23 08:30:17;;;;;;;8.40;2.87;;;;;;;9.26;100.00;100673.13;5282616;28;20028;-71
2023/12/23 08:32:49;;;;;;;11.03;3.03;;;;;;;9.26;100.00;100657.50;5282541;28;20480;-71
2023/12/23 08:35:20;;;;;;;10.50;2.83;;;;;;;9.29;99.95;100670.50;5264214;28;20076;-71
2023/12/23 08:37:51;;;;;;;10.43;2.73;;;;;;;9.32;100.00;100656.59;5282562;28;20438;-70
2023/12/23 08:40:23;;;;;;;9.07;2.50;;;;;;;9.25;100.00;100707.81;5281411;28;20056;-71
2023/12/23 08:42:54;;;;;;;9.10;3.73;;;;;;;9.27;100.00;100661.84;5282381;28;20028;-71
2023/12/23 08:45:26;;;;;;;12.50;3.33;;;;;;;9.27;100.00;100673.97;5282312;28;20064;-71
2023/12/23 08:47:57;;;;;;;10.83;3.40;;;;;;;9.22;100.00;100694.81;5282277;28;20036;-70
2023/12/23 08:50:29;;;;;;;12.10;3.27;;;;;;;9.23;100.00;100673.16;5281706;28;20024;-71
2023/12/23 08:53:00;;;;;;;10.77;3.73;;;;;;;9.23;100.00;100665.34;5282335;28;20079;-71
2023/12/23 08:55:32;;;;;;;8.60;2.93;;;;;;;9.22;100.00;100676.63;5282351;28;20035;-71
2023/12/23 08:58:03;;;;;;;15.97;4.03;;;;;;;9.13;100.00;100682.78;5281695;28;20379;-70
2023/12/23 09:00:35;;;;;;;9.33;3.13;;;;;;;9.08;100.00;100700.16;5282541;28;20059;-70
2023/12/23 09:03:07;;;;;;;12.73;2.70;;;;;;;8.94;100.00;100692.44;5281086;28;20040;-71
2023/12/23 09:05:38;;;;;;;7.67;2.83;;;;;;;8.83;100.00;100681.28;5282018;28;20270;-71
2023/12/23 09:08:12;;;;;;;11.10;3.50;;;;;;;8.73;100.00;100680.47;5281893;28;20044;-70
2023/12/23 09:10:43;;;;;;;10.85;2.63;;;;;;;8.64;100.00;100698.72;5280158;28;20028;-70
2023/12/23 09:13:14;;;;;;;11.00;3.70;;;;;;;8.58;100.00;100706.53;5281904;28;20029;-71
2023/12/23 09:15:46;;;;;;;7.93;3.00;;;;;;;8.36;100.00;100692.81;5281198;28;20377;-72
2023/12/23 09:18:17;;;;;;;9.83;3.83;;;;;;;8.28;100.00;100716.22;5281645;28;20380;-71
2023/12/23 09:20:48;;;;;;;13.13;3.00;;;;;;;8.31;100.00;100702.34;5281509;28;20551;-71
2023/12/23 09:23:20;;;;;;;11.53;2.77;;;;;;;8.31;100.00;100728.31;5282004;28;20040;-71
2023/12/23 09:25:51;;;;;;;14.37;2.60;;;;;;;8.27;100.00;100704.06;5281439;28;20035;-72
2023/12/23 09:28:23;;;;;;;11.70;3.10;;;;;;;8.34;100.00;100713.59;5281075;28;20068;-72
2023/12/23 09:30:54;;;;;;;11.77;2.57;;;;;;;8.43;100.00;100693.63;5281722;28;20037;-72
2023/12/23 09:33:25;;;;;;;14.10;3.30;;;;;;;8.53;100.00;100716.09;5281028;28;20029;-72
2023/12/23 09:35:57;;;;;;;9.97;2.80;;;;;;;8.59;100.00;100692.69;5281016;28;20029;-71
2023/12/23 09:38:28;;;;;;;10.40;3.60;;;;;;;8.69;100.00;100698.69;5281642;28;20032;-71
2023/12/23 09:41:00;;;;;;;9.80;3.20;;;;;;;8.73;100.00;100692.63;5280767;28;20491;-71
2023/12/23 09:43:32;;;;;;;8.50;2.57;;;;;;;8.85;100.00;100700.31;5281982;28;20036;-71
2023/12/23 09:46:04;;;;;;;;;;;;;;;8.91;100.00;100713.28;5280255;28;20108;-70
2023/12/23 09:48:36;;;;;;;9.30;2.78;;;;;;;8.98;100.00;100714.09;5280993;28;20342;-71
2023/12/23 09:51:07;;;;;;;10.03;2.83;;;;;;;9.04;100.00;100723.59;5281328;28;20028;-70
2023/12/23 09:53:45;;;;;;;9.37;2.67;;;;;;;9.09;100.00;100716.59;5280076;28;20033;-71
2023/12/23 09:56:16;;;;;;;8.27;2.40;;;;;;;9.16;100.00;100730.41;5281390;28;20103;-71
2023/12/23 09:58:48;;;;;;;12.13;3.50;;;;;;;9.17;100.00;100720.00;5280713;28;20107;-71
2023/12/23 10:01:19;;;;;;;11.77;3.00;;;;;;;9.23;100.00;100724.31;5284628;28;20471;-71
2023/12/23 10:03:51;;;;;;;13.20;3.63;;;;;;;9.25;100.00;100754.63;5284927;28;20051;-71
2023/12/23 10:06:23;;;;;;;8.00;3.00;;;;;;;9.29;100.00;100742.47;5284550;28;20098;-71
2023/12/23 10:08:54;;;;;;;11.15;3.40;;;;;;;9.27;100.00;100736.41;5284244;28;20119;-73
2023/12/23 10:11:25;;;;;;;10.57;3.23;;;;;;;9.27;100.00;100733.81;5285560;28;20109;-72
2023/12/23 10:13:57;;;;;;;12.23;3.10;;;;;;;9.28;100.00;100744.19;5284609;28;20511;-70
2023/12/23 10:16:29;;;;;;;12.00;2.77;;;;;;;9.30;100.00;100737.22;5284142;28;20036;-72
2023/12/23 10:19:01;;;;;;;13.45;3.70;;;;;;;9.29;100.00;100740.72;5284392;28;20099;-72
2023/12/23 10:21:33;;;;;;;9.67;3.13;;;;;;;9.30;100.00;100746.78;5285140;28;20200;-72
2023/12/23 10:24:04;;;;;;;13.75;3.53;;;;;;;9.33;100.00;100732.91;5284143;28;20097;-72
2023/12/23 10:26:37;;;;;;;12.23;3.60;;;;;;;9.33;100.00;100723.34;5284562;28;20067;-71
2023/12/23 10:29:10;;;;;;;8.05;2.55;;;;;;;9.37;100.00;100732.88;5283919;28;20119;-70
2023/12/23 10:31:45;;;;;;;11.57;3.28;;;;;;;9.46;100.00;100717.16;5283285;28;20082;-71
2023/12/23 10:34:20;;;;;;;9.50;3.15;;;;;;;9.49;100.00;100729.28;5283787;28;20056;-71
2023/12/23 10:36:54;;;;;;;9.65;3.85;;;;;;;9.56;98.27;100730.09;5284778;28;20032;-71
2023/12/23 10:39:28;;;;;;;10.48;2.55;;;;;;;9.56;98.40;100720.53;5283586;28;20094;-72
2023/12/23 10:42:11;;;;;;;6.85;3.08;;;;;;;9.66;98.34;100731.75;5284643;28;20134;-71
2023/12/23 10:44:43;;;;;;;11.05;3.00;;;;;;;9.67;98.09;100739.50;5284097;28;20040;-72
2023/12/23 10:47:15;;;;;;;11.50;3.63;;;;;;;9.74;96.49;100724.72;5284621;28;20032;-71
2023/12/23 10:49:49;;;;;;;7.57;2.30;;;;;;;9.77;96.67;100734.22;5281731;28;20051;-71
2023/12/23 10:52:21;;;;;;;7.68;2.45;;;;;;;9.73;96.92;100724.72;5279253;28;20374;-72
2023/12/23 10:54:53;;;;;;;11.10;3.37;;;;;;;9.74;96.09;100735.13;5282346;28;20036;-71
2023/12/23 10:57:26;;;;;;;11.07;3.27;;;;;;;9.78;96.23;100725.53;5282054;28;20040;-71
2023/12/23 10:59:58;;;;;;;6.00;2.13;;;;;;;9.80;95.49;100724.63;5286018;28;20507;-72
2023/12/23 11:02:30;;;;;;;11.43;2.80;;;;;;;9.84;95.94;100741.94;5262432;28;20037;-72
2023/12/23 11:05:07;;;;;;;6.40;2.67;;;;;;;9.82;95.06;100719.41;5272979;28;20032;-71
2023/12/23 11:07:43;;;;;;;7.07;2.45;;;;;;;9.85;96.22;100717.66;5281757;28;20037;-71
2023/12/23 11:10:16;;;;;;;9.88;2.60;;;;;;;9.91;95.35;100697.63;5282490;28;20024;-71
2023/12/23 11:12:47;;;;;;;7.25;2.05;;;;;;;9.95;95.35;100720.13;5280810;28;20033;-72
2023/12/23 11:15:18;;;;;;;9.30;2.97;;;;;;;9.94;94.30;100715.81;5282629;28;20102;-70
2023/12/23 11:17:54;;;;;;;11.50;3.47;;;;;;;9.91;94.06;100740.13;5283117;28;20032;-71
2023/12/23 11:20:31;;;;;;;9.50;2.80;;;;;;;9.98;93.44;100727.91;5280653;28;20031;-72
2023/12/23 11:23:38;;;;;;;9.63;2.75;;;;;;;10.08;93.50;100750.38;5283052;28;20375;-72
2023/12/23 11:26:39;;;;;;;8.15;2.60;;;;;;;10.11;93.58;100739.03;5263491;28;20119;-71
2023/12/23 11:29:14;;;;;;;10.27;3.35;;;;;;;10.12;92.65;100759.88;5274496;28;20043;-70
2023/12/23 11:31:45;;;;;;;9.57;2.83;;;;;;;10.09;92.82;100730.41;5283506;28;20087;-71
2023/12/23 11:34:20;;;;;;;7.00;2.10;;;;;;;10.09;92.63;100722.59;5282883;28;20161;-71
2023/12/23 11:36:51;;;;;;;6.40;2.08;;;;;;;10.15;92.80;100720.75;5283294;28;20101;-71
2023/12/23 11:39:24;;;;;;;10.57;2.80;;;;;;;10.14;92.00;100715.56;5281498;28;20041;-72
2023/12/23 11:41:57;;;;;;;7.57;3.17;;;;;;;10.22;91.87;100725.03;5283314;28;20033;-71